createdAt,value
2023-02-23T00:04:19.033Z,13.08
2023-02-23T00:09:26.032Z,12.91
2023-02-23T00:14:31.321Z,12.62
2023-02-23T00:19:37.867Z,12.17
2023-02-23T00:24:43.387Z,12.96
2023-02-23T00:29:49.675Z,12.67
2023-02-23T00:34:53.549Z,12.04
2023-02-23T00:39:58.300Z,12.51
2023-02-23T00:45:08.774Z,12.43
2023-02-23T00:50:14.887Z,11.83
2023-02-23T00:55:19.788Z,12.82
2023-02-23T01:00:26.647Z,13.65
2023-02-23T01:05:35.181Z,12.07
2023-02-23T01:10:43.030Z,12.03
2023-02-23T01:15:52.323Z,11.92
2023-02-23T01:20:55.734Z,12.60
2023-02-23T01:26:00.781Z,11.91
2023-02-23T01:31:09.358Z,12.13
2023-02-23T01:36:18.766Z,11.64
2023-02-23T01:41:28.104Z,11.30
2023-02-23T01:46:33.171Z,11.72
2023-02-23T01:51:43.066Z,12.36
2023-02-23T01:56:58.120Z,12.20
2023-02-23T02:02:05.099Z,12.07
2023-02-23T02:07:09.255Z,12.60
2023-02-23T02:12:14.998Z,13.37
2023-02-23T02:17:32.094Z,12.98
2023-02-23T02:22:48.238Z,12.97
2023-02-23T02:28:08.822Z,12.73
2023-02-23T02:33:37.999Z,13.25
2023-02-23T02:38:53.768Z,13.23
2023-02-23T02:44:01.823Z,13.20
2023-02-23T02:49:09.788Z,14.01
2023-02-23T02:54:25.177Z,13.26
2023-02-23T02:59:49.216Z,14.42
2023-02-23T03:05:11.010Z,11.79
2023-02-23T03:10:43.694Z,11.81
2023-02-23T03:16:13.692Z,11.85
2023-02-23T03:21:39.639Z,11.51
2023-02-23T03:27:09.497Z,11.19
2023-02-23T03:32:38.528Z,12.05
2023-02-23T03:38:04.952Z,12.02
2023-02-23T03:43:33.223Z,12.73
2023-02-23T03:48:56.176Z,12.37
2023-02-23T03:54:20.828Z,12.20
2023-02-23T03:59:46.463Z,12.62
2023-02-23T04:05:08.804Z,14.66
2023-02-23T04:10:31.731Z,16.23
2023-02-23T04:15:40.007Z,15.99
2023-02-23T04:20:48.083Z,16.05
2023-02-23T04:25:52.060Z,16.68
2023-02-23T04:30:57.485Z,15.45
2023-02-23T04:36:04.498Z,14.37
2023-02-23T04:41:07.895Z,18.47
2023-02-23T04:46:12.736Z,15.60
2023-02-23T04:51:16.256Z,15.39
2023-02-23T04:56:19.857Z,12.20
2023-02-23T05:01:27.333Z,12.51
2023-02-23T05:06:31.614Z,12.52
2023-02-23T05:11:35.184Z,12.71
2023-02-23T05:16:39.952Z,12.12
2023-02-23T05:21:43.305Z,13.25
2023-02-23T05:26:48.082Z,16.23
2023-02-23T05:31:53.007Z,16.17
2023-02-23T05:36:56.661Z,17.06
2023-02-23T05:42:00.124Z,15.47
2023-02-23T05:47:06.972Z,17.14
2023-02-23T05:52:10.338Z,16.54
2023-02-23T05:57:13.711Z,16.37
2023-02-23T06:02:18.478Z,16.48
2023-02-23T06:07:24.660Z,16.21
2023-02-23T06:12:28.361Z,19.44
2023-02-23T06:17:33.828Z,17.33
2023-02-23T06:22:37.185Z,16.32
2023-02-23T06:27:40.782Z,14.71
2023-02-23T06:32:45.553Z,15.37
2023-02-23T06:37:52.546Z,15.85
2023-02-23T06:42:55.961Z,15.12
2023-02-23T06:48:03.151Z,15.29
2023-02-23T06:53:06.637Z,15.27
2023-02-23T06:58:10.171Z,15.40
2023-02-23T07:03:15.093Z,15.33
2023-02-23T07:08:19.132Z,15.13
2023-02-23T07:13:22.522Z,13.63
2023-02-23T07:18:30.082Z,14.65
2023-02-23T07:23:33.477Z,14.75
2023-02-23T07:28:39.299Z,15.76
2023-02-23T07:33:44.398Z,15.73
2023-02-23T07:38:50.043Z,15.66
2023-02-23T07:43:55.984Z,16.24
2023-02-23T07:49:05.770Z,16.11
2023-02-23T07:54:11.298Z,15.98
2023-02-23T07:59:17.634Z,15.79
2023-02-23T08:04:22.419Z,15.74
2023-02-23T08:09:28.358Z,16.43
2023-02-23T08:14:32.304Z,19.05
2023-02-23T08:19:37.348Z,16.06
2023-02-23T08:24:43.202Z,15.78
2023-02-23T08:29:46.842Z,15.62
2023-02-23T08:34:51.570Z,16.43
2023-02-23T08:39:54.955Z,17.67
2023-02-23T08:44:59.218Z,17.26
2023-02-23T08:50:06.685Z,17.49
2023-02-23T08:55:11.787Z,16.03
2023-02-23T09:00:18.033Z,16.86
2023-02-23T09:05:22.891Z,17.24
2023-02-23T09:10:28.997Z,17.67
2023-02-23T09:15:34.534Z,17.25
2023-02-23T09:20:44.144Z,17.46
2023-02-23T09:25:47.670Z,17.65
2023-02-23T09:30:51.185Z,18.87
2023-02-23T09:35:58.355Z,18.30
2023-02-23T09:41:09.526Z,18.60
2023-02-23T09:46:21.319Z,18.83
2023-02-23T09:51:27.288Z,20.00
2023-02-23T09:56:35.895Z,18.83
2023-02-23T10:01:52.086Z,19.78
2023-02-23T10:07:01.534Z,18.29
2023-02-23T10:12:09.727Z,18.17
2023-02-23T10:17:24.398Z,18.80
2023-02-23T10:22:30.388Z,17.04
2023-02-23T10:27:40.036Z,16.20
2023-02-23T10:32:49.273Z,18.55
2023-02-23T10:37:54.356Z,18.62
2023-02-23T10:43:01.708Z,20.00
2023-02-23T10:48:07.099Z,19.92
2023-02-23T10:53:17.224Z,21.66
2023-02-23T10:58:21.425Z,20.14
2023-02-23T11:03:27.690Z,20.66
2023-02-23T11:08:36.874Z,20.28
2023-02-23T11:13:42.464Z,19.46
2023-02-23T11:18:51.677Z,18.56
2023-02-23T11:23:59.149Z,18.37
2023-02-23T11:29:11.167Z,19.21
2023-02-23T11:34:22.725Z,19.63
2023-02-23T11:39:27.483Z,19.84
2023-02-23T11:44:30.851Z,19.33
2023-02-23T11:49:36.073Z,18.24
2023-02-23T11:54:50.637Z,18.35
2023-02-23T11:59:57.401Z,17.65
2023-02-23T12:05:08.604Z,17.29
2023-02-23T12:10:20.208Z,17.82
2023-02-23T12:15:28.543Z,17.53
2023-02-23T12:20:40.896Z,18.02
2023-02-23T12:25:49.987Z,17.12
2023-02-23T12:30:58.253Z,17.95
2023-02-23T12:36:12.494Z,17.27
2023-02-23T12:41:21.350Z,18.23
2023-02-23T12:46:29.878Z,19.46
2023-02-23T12:51:37.129Z,16.32
2023-02-23T12:56:50.516Z,22.60
2023-02-23T13:01:59.576Z,17.21
2023-02-23T13:07:07.722Z,14.12
2023-02-23T13:12:23.411Z,13.89
2023-02-23T13:17:36.096Z,14.16
2023-02-23T13:22:47.541Z,13.90
2023-02-23T13:27:56.741Z,14.37
2023-02-23T13:33:03.390Z,13.47
2023-02-23T13:38:16.215Z,13.64
2023-02-23T13:43:27.205Z,13.35
2023-02-23T13:48:56.223Z,16.71
2023-02-23T13:54:03.164Z,14.67
2023-02-23T13:59:10.777Z,14.37
2023-02-23T14:04:16.557Z,15.54
2023-02-23T14:09:23.853Z,18.91
2023-02-23T14:14:43.767Z,17.69
2023-02-23T14:20:06.841Z,19.46
2023-02-23T14:25:28.878Z,18.80
2023-02-23T14:30:46.380Z,20.27
2023-02-23T14:35:49.854Z,19.43
2023-02-23T14:40:55.032Z,18.74
2023-02-23T14:46:06.035Z,18.60
2023-02-23T14:51:17.194Z,17.54
2023-02-23T14:56:22.157Z,15.39
2023-02-23T15:01:35.534Z,15.53
2023-02-23T15:06:42.354Z,15.55
2023-02-23T15:11:50.005Z,18.07
2023-02-23T15:16:56.974Z,15.72
2023-02-23T15:22:02.642Z,16.68
2023-02-23T15:27:06.368Z,16.14
2023-02-23T15:32:18.121Z,15.48
2023-02-23T15:37:28.138Z,16.02
2023-02-23T15:42:38.257Z,15.43
2023-02-23T15:47:45.656Z,15.88
2023-02-23T15:52:51.995Z,15.92
2023-02-23T15:57:58.910Z,16.99
2023-02-23T16:03:05.765Z,16.87
2023-02-23T16:08:22.825Z,25.39
2023-02-23T16:13:27.397Z,19.62
2023-02-23T16:18:39.573Z,17.81
2023-02-23T16:23:47.810Z,18.01
2023-02-23T16:28:56.501Z,19.12
2023-02-23T16:34:01.688Z,20.02
2023-02-23T16:39:08.102Z,21.34
2023-02-23T16:44:16.460Z,21.73
2023-02-23T16:49:23.487Z,22.60
2023-02-23T16:54:27.622Z,27.90
2023-02-23T16:59:31.259Z,27.50
2023-02-23T17:04:36.174Z,27.85
2023-02-23T17:09:39.595Z,29.60
2023-02-23T17:14:45.722Z,26.59
2023-02-23T17:19:50.483Z,25.20
2023-02-23T17:24:53.833Z,24.84
2023-02-23T17:29:57.227Z,24.72
2023-02-23T17:35:02.064Z,24.99
2023-02-23T17:40:08.047Z,26.07
2023-02-23T17:45:11.878Z,25.32
2023-02-23T17:50:16.675Z,40.45
2023-02-23T17:55:21.565Z,35.08
2023-02-23T18:00:25.258Z,31.26
2023-02-23T18:05:30.140Z,31.62
2023-02-23T18:10:36.858Z,32.34
2023-02-23T18:15:40.672Z,34.13
2023-02-23T18:20:50.736Z,33.92
2023-02-23T18:26:05.361Z,35.04
2023-02-23T18:31:09.008Z,32.79
2023-02-23T18:36:18.898Z,32.49
2023-02-23T18:41:22.916Z,30.26
2023-02-23T18:46:31.675Z,28.12
2023-02-23T18:51:38.824Z,28.29
2023-02-23T18:56:45.888Z,37.18
2023-02-23T19:01:52.812Z,30.30
2023-02-23T19:06:58.902Z,29.33
2023-02-23T19:12:04.846Z,30.88
2023-02-23T19:17:08.340Z,28.17
2023-02-23T19:22:13.111Z,28.88
2023-02-23T19:27:19.122Z,28.86
2023-02-23T19:32:25.244Z,29.17
2023-02-23T19:37:30.519Z,29.24
2023-02-23T19:42:35.179Z,28.60
2023-02-23T19:47:38.742Z,28.92
2023-02-23T19:52:44.588Z,29.72
2023-02-23T19:57:48.164Z,32.07
2023-02-23T20:02:55.677Z,32.75
2023-02-23T20:08:00.518Z,33.70
2023-02-23T20:13:06.124Z,33.41
2023-02-23T20:18:10.067Z,34.48
2023-02-23T20:23:14.873Z,35.62
2023-02-23T20:28:20.958Z,34.97
2023-02-23T20:33:24.404Z,37.84
2023-02-23T20:38:29.266Z,36.05
2023-02-23T20:43:32.988Z,36.66
2023-02-23T20:48:38.859Z,38.05
2023-02-23T20:53:48.233Z,38.93
2023-02-23T20:58:54.408Z,39.24
2023-02-23T21:04:01.473Z,38.28
2023-02-23T21:09:07.135Z,38.16
2023-02-23T21:14:10.768Z,37.77
2023-02-23T21:19:14.873Z,38.11
2023-02-23T21:24:20.623Z,39.30
2023-02-23T21:29:24.174Z,40.98
2023-02-23T21:34:27.679Z,40.84
2023-02-23T21:39:34.882Z,49.13
2023-02-23T21:44:38.412Z,42.87
2023-02-23T21:49:41.977Z,43.50
2023-02-23T21:54:51.444Z,43.21
2023-02-23T21:59:55.126Z,43.83
2023-02-23T22:04:58.607Z,43.56
2023-02-23T22:10:03.534Z,43.14
2023-02-23T22:15:08.222Z,42.73
2023-02-23T22:20:12.371Z,43.47
2023-02-23T22:25:18.118Z,44.41
2023-02-23T22:30:23.684Z,44.87
2023-02-23T22:35:27.199Z,45.70
2023-02-23T22:40:32.085Z,46.29
2023-02-23T22:45:36.621Z,45.47
2023-02-23T22:50:42.738Z,47.51
2023-02-23T22:55:48.974Z,46.24
2023-02-23T23:01:04.031Z,46.80
2023-02-23T23:06:09.147Z,47.47
2023-02-23T23:11:15.612Z,47.18
2023-02-23T23:16:31.146Z,46.37
2023-02-23T23:21:36.845Z,45.57
2023-02-23T23:26:44.397Z,45.97
2023-02-23T23:31:48.460Z,45.92
2023-02-23T23:36:55.414Z,46.06
2023-02-23T23:42:01.823Z,46.38
2023-02-23T23:47:05.727Z,45.83
2023-02-23T23:52:09.459Z,46.95
2023-02-23T23:57:14.485Z,47.78
